Ezine, Turkey
Current Conditions -  °F | °C
As of 11:50 PM on Sunday 21 Dec 2014 (Local Time) from LTBH Reporting Station
Clear Clear  
Wind Chill: 41°   Ceiling: Unl
Heat Index: 46°   Visibility: 6mi
Dew Point: 36°   Wind: 10mph
Humidity: 66%   Direction: 50°NE
Pressure: 30.33"   Gusts: NA
Location:  39.79°N, 26.33°E
Report Text: LTBH 212050Z 05009KT CAVOK 08/02 Q1027
Loading
Personal Weather Stations






























Interactive Weather Map New forecast layout! Learn more

10-Day Weather Forecast

Advertisements
Track Severe Weather on mobile